Time;durP1;ratioP1;P1;durP2;ratioP2;P2;SDS_P1;SDS_P2;PMS_P1;PMS_P2;Temp;Humidity;BMP_temperature;BMP_pressure;BME280_temperature;BME280_humidity;BME280_pressure;Samples;Min_cycle;Max_cycle;Signal;HPM_P1;HPM_P2
2024/04/03 00:01:17;;;;;;;;;;;18.00;66.10;;;;;;5039348;28;1519;-73
2024/04/03 00:03:42;;;;;;;;;;;18.00;66.10;;;;;;5054055;28;1678;-73
2024/04/03 00:06:07;;;;;;;;;;;18.00;66.10;;;;;;5042586;28;1419;-73
2024/04/03 00:08:33;;;;;;;;;;;18.00;66.10;;;;;;5037915;28;1284;-73
2024/04/03 00:10:58;;;;;;;;;;;18.00;66.20;;;;;;5040910;28;1362;-72
2024/04/03 00:13:24;;;;;;;;;;;18.00;66.20;;;;;;5037262;28;1038;-73
2024/04/03 00:15:49;;;;;;;;;;;18.00;66.20;;;;;;5038983;28;1476;-71
2024/04/03 00:18:15;;;;;;;;;;;18.00;66.20;;;;;;5037977;28;1958;-71
2024/04/03 00:20:40;;;;;;;;;;;18.00;66.20;;;;;;5074400;28;1502;-70
2024/04/03 00:23:06;;;;;;;;;;;18.00;66.20;;;;;;5041553;28;1570;-70
2024/04/03 00:25:31;;;;;;;;;;;18.00;66.20;;;;;;5036724;28;1647;-70
2024/04/03 00:27:57;;;;;;;;;;;18.00;66.20;;;;;;5040600;28;1546;-71
2024/04/03 00:30:22;;;;;;;;;;;18.00;66.20;;;;;;5038570;28;1521;-71
2024/04/03 00:32:48;;;;;;;;;;;18.00;66.20;;;;;;5040881;28;1478;-71
2024/04/03 00:35:13;;;;;;;;;;;18.00;66.20;;;;;;5041132;28;1383;-72
2024/04/03 00:37:40;;;;;;;;;;;18.00;66.20;;;;;;5055195;28;1915;-71
2024/04/03 00:40:06;;;;;;;;;;;18.00;66.20;;;;;;5048907;28;2265;-71
2024/04/03 00:42:31;;;;;;;;;;;18.00;66.30;;;;;;5042422;28;1673;-71
2024/04/03 00:44:57;;;;;;;;;;;18.00;66.20;;;;;;5043145;28;1465;-71
2024/04/03 00:47:22;;;;;;;;;;;18.00;66.20;;;;;;5040071;28;1647;-71
2024/04/03 00:49:48;;;;;;;;;;;18.00;66.20;;;;;;5040066;28;1548;-71
2024/04/03 00:52:14;;;;;;;;;;;18.00;66.30;;;;;;5022654;28;1474;-69
2024/04/03 00:54:39;;;;;;;;;;;18.00;66.30;;;;;;5039643;28;1652;-69
2024/04/03 00:57:05;;;;;;;;;;;18.00;66.30;;;;;;5069623;28;1901;-69
2024/04/03 00:59:30;;;;;;;;;;;18.00;66.30;;;;;;5041704;28;1730;-70
2024/04/03 01:01:56;;;;;;;;;;;18.00;66.30;;;;;;5040547;28;1288;-70
2024/04/03 01:04:21;;;;;;;;;;;18.00;66.30;;;;;;5035658;28;1554;-71
2024/04/03 01:06:47;;;;;;;;;;;18.00;66.30;;;;;;5040193;28;1291;-72
2024/04/03 01:09:12;;;;;;;;;;;18.00;66.30;;;;;;5041538;28;1485;-72
2024/04/03 01:11:38;;;;;;;;;;;18.00;66.30;;;;;;5069990;28;1224;-73
2024/04/03 01:14:03;;;;;;;;;;;18.00;66.30;;;;;;5071490;28;1595;-72
2024/04/03 01:16:29;;;;;;;;;;;18.00;66.30;;;;;;5037485;28;1906;-70
2024/04/03 01:18:54;;;;;;;;;;;18.00;66.30;;;;;;5034767;28;1434;-71
2024/04/03 01:21:19;;;;;;;;;;;18.00;66.30;;;;;;5038485;28;1609;-72
2024/04/03 01:23:48;;;;;;;;;;;18.00;66.30;;;;;;5035551;28;1706;-73
2024/04/03 01:26:14;;;;;;;;;;;18.00;66.30;;;;;;5023655;28;1446;-72
2024/04/03 01:28:39;;;;;;;;;;;17.90;66.30;;;;;;5038862;28;1659;-72
2024/04/03 01:31:05;;;;;;;;;;;18.00;66.40;;;;;;5038476;28;1585;-72
2024/04/03 01:33:30;;;;;;;;;;;18.00;66.30;;;;;;5037156;28;1338;-72
2024/04/03 01:35:56;;;;;;;;;;;18.00;66.30;;;;;;5041941;28;1471;-72
2024/04/03 01:38:21;;;;;;;;;;;17.90;66.30;;;;;;5070929;28;1970;-71
2024/04/03 01:40:47;;;;;;;;;;;18.00;66.40;;;;;;5040780;28;1651;-71
2024/04/03 01:43:12;;;;;;;;;;;17.90;66.30;;;;;;5038889;28;1454;-72
2024/04/03 01:45:38;;;;;;;;;;;18.00;66.30;;;;;;5070636;28;1404;-72
2024/04/03 01:48:03;;;;;;;;;;;18.00;66.40;;;;;;5072968;28;1092;-72
2024/04/03 01:50:36;;;;;;;;;;;18.00;66.40;;;;;;5043290;28;1240;-72
2024/04/03 01:53:01;;;;;;;;;;;18.00;66.40;;;;;;5040641;28;1263;-72
2024/04/03 01:55:27;;;;;;;;;;;18.00;66.40;;;;;;5038837;28;1291;-72
2024/04/03 01:57:52;;;;;;;;;;;17.90;66.40;;;;;;5038598;28;1894;-71
2024/04/03 02:00:18;;;;;;;;;;;17.90;66.40;;;;;;5038018;28;1090;-70
2024/04/03 02:02:43;;;;;;;;;;;17.90;67.10;;;;;;5069829;28;1006;-72
2024/04/03 02:05:09;;;;;;;;;;;18.00;66.40;;;;;;5039202;28;1493;-72
2024/04/03 02:07:34;;;;;;;;;;;17.90;66.40;;;;;;5038181;28;1392;-72
2024/04/03 02:10:00;;;;;;;;;;;18.00;66.50;;;;;;5070761;28;1546;-72
2024/04/03 02:12:25;;;;;;;;;;;17.90;66.40;;;;;;5039817;28;1556;-71
2024/04/03 02:14:51;;;;;;;;;;;17.90;66.40;;;;;;5039012;28;1533;-72
2024/04/03 02:17:16;;;;;;;;;;;17.90;66.40;;;;;;5046130;28;1921;-72
2024/04/03 02:19:41;;;;;;;;;;;17.90;66.40;;;;;;5038119;28;1469;-72
2024/04/03 02:22:07;;;;;;;;;;;17.90;66.40;;;;;;5046193;28;1441;-71
2024/04/03 02:24:32;;;;;;;;;;;17.90;66.40;;;;;;5049811;28;1439;-70
2024/04/03 02:26:58;;;;;;;;;;;17.90;66.40;;;;;;5045232;28;1565;-71
2024/04/03 02:29:23;;;;;;;;;;;17.90;66.40;;;;;;5047845;28;1616;-70
2024/04/03 02:31:49;;;;;;;;;;;17.90;66.40;;;;;;5061693;28;1440;-72
2024/04/03 02:34:14;;;;;;;;;;;18.00;66.50;;;;;;5043117;28;1508;-72
2024/04/03 02:36:40;;;;;;;;;;;18.00;66.50;;;;;;5044844;28;1969;-74
2024/04/03 02:39:05;;;;;;;;;;;17.90;66.40;;;;;;5047542;28;1715;-74
2024/04/03 02:41:31;;;;;;;;;;;17.90;66.40;;;;;;5044239;28;1486;-74
2024/04/03 02:43:56;;;;;;;;;;;18.00;66.50;;;;;;5077027;28;1338;-73
2024/04/03 02:46:22;;;;;;;;;;;17.90;66.40;;;;;;5045667;28;1362;-73
2024/04/03 02:48:47;;;;;;;;;;;18.00;66.50;;;;;;5059444;28;1454;-73
2024/04/03 02:51:13;;;;;;;;;;;17.90;66.50;;;;;;5047776;28;1341;-72
2024/04/03 02:53:38;;;;;;;;;;;17.90;66.40;;;;;;5043800;28;1611;-72
2024/04/03 02:56:04;;;;;;;;;;;17.90;66.50;;;;;;5044156;28;1910;-72
2024/04/03 02:58:30;;;;;;;;;;;17.90;66.50;;;;;;5046729;28;1527;-72
2024/04/03 03:01:02;;;;;;;;;;;17.90;66.50;;;;;;5078264;28;1569;-72
2024/04/03 03:03:29;;;;;;;;;;;17.90;66.50;;;;;;5043150;28;1458;-73
2024/04/03 03:05:58;;;;;;;;;;;17.90;66.50;;;;;;5060536;28;1449;-72
2024/04/03 03:08:28;;;;;;;;;;;17.90;66.50;;;;;;5044284;28;1125;-72
2024/04/03 03:10:53;;;;;;;;;;;17.90;66.50;;;;;;5044955;28;1293;-72
2024/04/03 03:13:19;;;;;;;;;;;17.90;66.50;;;;;;5045752;28;1400;-72
2024/04/03 03:15:51;;;;;;;;;;;17.90;66.50;;;;;;5078203;28;1426;-73
2024/04/03 03:18:17;;;;;;;;;;;17.90;66.50;;;;;;5045315;28;1905;-72
2024/04/03 03:20:45;;;;;;;;;;;17.90;66.50;;;;;;5047909;28;1614;-72
2024/04/03 03:23:10;;;;;;;;;;;17.90;66.50;;;;;;5047434;28;1493;-72
2024/04/03 03:25:35;;;;;;;;;;;17.90;66.50;;;;;;5076879;28;1532;-73
2024/04/03 03:28:01;;;;;;;;;;;17.90;66.50;;;;;;5045520;28;1297;-72
2024/04/03 03:30:26;;;;;;;;;;;17.90;66.50;;;;;;5046752;28;950;-72
2024/04/03 03:32:52;;;;;;;;;;;17.90;66.50;;;;;;5048353;28;1460;-72
2024/04/03 03:35:17;;;;;;;;;;;17.90;66.50;;;;;;5042414;28;1287;-72
2024/04/03 03:37:45;;;;;;;;;;;17.90;66.50;;;;;;5039080;28;1910;-72
2024/04/03 03:40:10;;;;;;;;;;;17.90;66.50;;;;;;5041934;28;1359;-72
2024/04/03 03:42:36;;;;;;;;;;;17.90;66.50;;;;;;5043651;28;1549;-72
2024/04/03 03:45:01;;;;;;;;;;;17.90;66.50;;;;;;5039644;28;1317;-72
2024/04/03 03:47:27;;;;;;;;;;;17.90;66.60;;;;;;5041201;28;1169;-72
2024/04/03 03:52:36;;;;;;;;;;;17.90;66.60;;;;;;5066746;28;1093;-72
2024/04/03 03:55:02;;;;;;;;;;;17.90;66.60;;;;;;5044248;28;1367;-72
2024/04/03 03:57:28;;;;;;;;;;;17.90;66.60;;;;;;5023171;28;1978;-73
2024/04/03 03:59:54;;;;;;;;;;;17.90;67.30;;;;;;5042067;28;1491;-73
2024/04/03 04:02:20;;;;;;;;;;;17.90;66.60;;;;;;5042015;28;1456;-73
2024/04/03 04:04:49;;;;;;;;;;;17.90;66.60;;;;;;5040992;28;1453;-72
2024/04/03 04:07:15;;;;;;;;;;;17.90;66.60;;;;;;5048225;28;1515;-73
2024/04/03 04:09:41;;;;;;;;;;;17.90;66.60;;;;;;5058032;28;1364;-73
2024/04/03 04:12:06;;;;;;;;;;;17.90;66.60;;;;;;5038999;28;1369;-73
2024/04/03 04:14:32;;;;;;;;;;;17.90;66.60;;;;;;5037930;28;1635;-72
2024/04/03 04:16:57;;;;;;;;;;;18.00;66.60;;;;;;5040236;28;1971;-73
2024/04/03 04:19:23;;;;;;;;;;;17.90;66.50;;;;;;5059280;28;1298;-73
2024/04/03 04:21:48;;;;;;;;;;;18.00;66.50;;;;;;5040215;28;1015;-72
2024/04/03 04:24:18;;;;;;;;;;;18.00;66.40;;;;;;5047737;28;1729;-72
2024/04/03 04:26:45;;;;;;;;;;;18.00;66.30;;;;;;5040629;28;1533;-73
2024/04/03 04:29:10;;;;;;;;;;;18.00;66.20;;;;;;5058530;28;1338;-73
2024/04/03 04:31:35;;;;;;;;;;;18.00;66.10;;;;;;5041996;28;1216;-72
2024/04/03 04:34:01;;;;;;;;;;;18.10;66.10;;;;;;5042369;28;1296;-72
2024/04/03 04:36:26;;;;;;;;;;;18.10;66.00;;;;;;5038156;28;1965;-72
2024/04/03 04:38:52;;;;;;;;;;;18.10;65.90;;;;;;5039957;28;1479;-73
2024/04/03 04:41:18;;;;;;;;;;;18.10;65.90;;;;;;5038267;28;993;-72
2024/04/03 04:43:43;;;;;;;;;;;18.10;65.80;;;;;;5040578;28;1406;-72
2024/04/03 04:46:08;;;;;;;;;;;18.20;65.80;;;;;;5031988;28;1519;-72
2024/04/03 04:48:34;;;;;;;;;;;18.20;65.70;;;;;;5040807;28;1003;-72
2024/04/03 04:51:00;;;;;;;;;;;18.20;65.70;;;;;;5041136;28;1348;-72
2024/04/03 04:53:26;;;;;;;;;;;18.20;65.60;;;;;;5038219;28;1532;-72
2024/04/03 04:56:01;;;;;;;;;;;18.20;65.60;;;;;;5054764;28;1734;-72
2024/04/03 04:58:27;;;;;;;;;;;18.20;65.50;;;;;;5039553;28;1957;-72
2024/04/03 05:01:03;;;;;;;;;;;18.20;65.50;;;;;;5037203;28;1573;-72
2024/04/03 05:03:28;;;;;;;;;;;18.20;65.40;;;;;;5038146;28;1480;-71
2024/04/03 05:05:54;;;;;;;;;;;18.20;65.40;;;;;;5047035;28;1510;-71
2024/04/03 05:08:19;;;;;;;;;;;18.30;65.40;;;;;;5036972;28;1487;-71
2024/04/03 05:10:56;;;;;;;;;;;18.30;65.30;;;;;;5040411;28;1346;-71
2024/04/03 05:13:22;;;;;;;;;;;18.30;65.30;;;;;;5047655;28;1330;-71
2024/04/03 05:15:47;;;;;;;;;;;18.30;65.30;;;;;;5037073;28;1493;-72
2024/04/03 05:18:13;;;;;;;;;;;18.30;65.20;;;;;;5059252;28;1898;-71
2024/04/03 05:20:38;;;;;;;;;;;18.30;65.20;;;;;;5039778;28;1174;-71
2024/04/03 05:23:04;;;;;;;;;;;18.30;65.10;;;;;;5038517;28;1596;-71
2024/04/03 05:25:30;;;;;;;;;;;18.30;65.10;;;;;;5042355;28;1267;-71
2024/04/03 05:27:56;;;;;;;;;;;18.30;65.10;;;;;;5038788;28;1402;-71
2024/04/03 05:30:21;;;;;;;;;;;18.30;65.00;;;;;;5038935;28;1557;-71
2024/04/03 05:32:46;;;;;;;;;;;18.40;65.10;;;;;;5036206;28;1248;-70
2024/04/03 05:35:14;;;;;;;;;;;18.40;65.10;;;;;;5041736;28;1485;-71
2024/04/03 05:37:40;;;;;;;;;;;18.40;65.00;;;;;;5053578;28;1898;-71
2024/04/03 05:40:06;;;;;;;;;;;18.40;65.00;;;;;;5040135;28;1374;-71
2024/04/03 05:42:31;;;;;;;;;;;18.40;65.00;;;;;;5039440;28;1385;-71
2024/04/03 05:44:57;;;;;;;;;;;18.40;65.00;;;;;;5040914;28;1555;-71
2024/04/03 05:47:23;;;;;;;;;;;18.40;65.00;;;;;;5039980;28;1560;-71
2024/04/03 05:49:52;;;;;;;;;;;18.40;64.90;;;;;;5056965;28;1392;-71
2024/04/03 05:52:17;;;;;;;;;;;18.40;65.00;;;;;;5057174;28;1559;-71
2024/04/03 05:54:43;;;;;;;;;;;18.40;65.00;;;;;;5039412;28;1305;-71
2024/04/03 05:57:08;;;;;;;;;;;18.40;64.90;;;;;;5040434;28;1960;-71
2024/04/03 05:59:34;;;;;;;;;;;18.40;64.90;;;;;;5041070;28;994;-71
2024/04/03 06:01:59;;;;;;;;;;;18.40;64.90;;;;;;5041649;28;1426;-71
2024/04/03 06:04:25;;;;;;;;;;;18.40;64.90;;;;;;5057664;28;1402;-70
2024/04/03 06:06:52;;;;;;;;;;;18.40;64.90;;;;;;5072386;28;1280;-70
2024/04/03 06:09:17;;;;;;;;;;;18.40;64.90;;;;;;5041049;28;4190;-71
2024/04/03 06:11:45;;;;;;;;;;;18.40;65.00;;;;;;5038929;28;1853;-71
2024/04/03 06:14:11;;;;;;;;;;;18.40;65.00;;;;;;5038029;28;1597;-70
2024/04/03 06:16:36;;;;;;;;;;;18.40;65.00;;;;;;5038837;28;1961;-73
2024/04/03 06:19:03;;;;;;;;;;;18.40;65.00;;;;;;5022737;28;1517;-73
2024/04/03 06:21:29;;;;;;;;;;;18.40;65.00;;;;;;5069001;28;1625;-72
2024/04/03 06:23:55;;;;;;;;;;;18.40;65.00;;;;;;5036790;28;1480;-72
2024/04/03 06:26:20;;;;;;;;;;;18.40;65.10;;;;;;5036486;28;1588;-74
2024/04/03 06:28:46;;;;;;;;;;;18.40;65.10;;;;;;5041054;28;1314;-72
2024/04/03 06:31:11;;;;;;;;;;;18.40;65.10;;;;;;5038910;28;1620;-71
2024/04/03 06:33:37;;;;;;;;;;;18.30;65.00;;;;;;5035574;28;1575;-71
2024/04/03 06:36:02;;;;;;;;;;;18.30;65.10;;;;;;5070680;28;1473;-69
2024/04/03 06:38:27;;;;;;;;;;;18.30;65.10;;;;;;5038373;28;1965;-70
2024/04/03 06:40:53;;;;;;;;;;;18.30;65.10;;;;;;5040042;28;1507;-70
2024/04/03 06:43:19;;;;;;;;;;;18.30;65.10;;;;;;5042715;28;1325;-70
2024/04/03 06:45:53;;;;;;;;;;;18.30;65.10;;;;;;5038213;28;1291;-71
2024/04/03 06:48:19;;;;;;;;;;;18.30;65.20;;;;;;5062860;28;1344;-72
2024/04/03 06:50:50;;;;;;;;;;;18.30;65.20;;;;;;5067755;28;1495;-71
2024/04/03 06:53:15;;;;;;;;;;;18.30;65.20;;;;;;5040322;28;1235;-71
2024/04/03 06:55:41;;;;;;;;;;;18.30;65.30;;;;;;5040412;28;1343;-72
2024/04/03 06:58:06;;;;;;;;;;;18.30;65.30;;;;;;5040293;28;1969;-72
2024/04/03 07:00:35;;;;;;;;;;;18.30;65.30;;;;;;5047212;28;1127;-71
2024/04/03 07:03:00;;;;;;;;;;;18.30;65.30;;;;;;5041935;28;1152;-72
2024/04/03 07:05:26;;;;;;;;;;;18.30;65.30;;;;;;5043183;28;1272;-72
2024/04/03 07:07:51;;;;;;;;;;;18.20;65.30;;;;;;5043452;28;1428;-72
2024/04/03 07:10:16;;;;;;;;;;;18.20;65.30;;;;;;5047493;28;954;-72
2024/04/03 07:12:42;;;;;;;;;;;18.20;65.40;;;;;;5040399;28;1244;-72
2024/04/03 07:15:10;;;;;;;;;;;18.20;65.40;;;;;;5043340;28;1051;-72
2024/04/03 07:17:35;;;;;;;;;;;18.20;65.40;;;;;;5042235;28;1906;-72
2024/04/03 07:20:01;;;;;;;;;;;18.20;65.40;;;;;;5056118;28;1166;-71
2024/04/03 07:22:26;;;;;;;;;;;18.20;65.50;;;;;;5041448;28;1258;-72
2024/04/03 07:24:52;;;;;;;;;;;18.20;66.20;;;;;;5039148;28;1519;-72
2024/04/03 07:27:25;;;;;;;;;;;18.20;65.50;;;;;;5041301;28;1386;-72
2024/04/03 07:29:51;;;;;;;;;;;18.20;65.50;;;;;;5072716;28;1214;-70
2024/04/03 07:32:16;;;;;;;;;;;18.20;65.50;;;;;;5071166;28;2181;-72
2024/04/03 07:34:42;;;;;;;;;;;18.20;65.50;;;;;;5045288;28;1179;-71
2024/04/03 07:37:07;;;;;;;;;;;18.20;65.60;;;;;;5046410;28;1906;-70
2024/04/03 07:39:34;;;;;;;;;;;18.20;65.60;;;;;;5056457;28;1474;-71
2024/04/03 07:42:00;;;;;;;;;;;18.20;65.60;;;;;;5047460;28;1370;-72
2024/04/03 07:44:25;;;;;;;;;;;18.20;65.60;;;;;;5031750;28;1745;-71
2024/04/03 07:46:51;;;;;;;;;;;18.20;65.60;;;;;;5039732;28;1700;-71
2024/04/03 07:49:16;;;;;;;;;;;18.20;65.70;;;;;;5040518;28;1484;-71
2024/04/03 07:51:46;;;;;;;;;;;18.20;65.70;;;;;;5040911;28;1254;-70
2024/04/03 07:54:11;;;;;;;;;;;18.20;65.70;;;;;;5043592;28;1543;-72
2024/04/03 07:56:37;;;;;;;;;;;18.20;65.70;;;;;;5041673;28;1952;-71
2024/04/03 07:59:02;;;;;;;;;;;18.20;65.70;;;;;;5044804;28;1471;-72
2024/04/03 08:01:27;;;;;;;;;;;18.20;65.70;;;;;;5072732;28;1705;-71
2024/04/03 08:03:53;;;;;;;;;;;18.20;65.80;;;;;;5043722;28;1346;-72
2024/04/03 08:06:18;;;;;;;;;;;18.20;65.80;;;;;;5038784;28;1889;-72
2024/04/03 08:08:45;;;;;;;;;;;18.20;65.80;;;;;;5041332;28;1556;-71
2024/04/03 08:11:10;;;;;;;;;;;18.20;65.80;;;;;;5070989;28;1428;-71
2024/04/03 08:13:36;;;;;;;;;;;18.20;65.80;;;;;;5039854;28;1453;-71
2024/04/03 08:16:02;;;;;;;;;;;18.10;65.70;;;;;;5032963;28;1930;-72
2024/04/03 08:18:28;;;;;;;;;;;18.10;65.80;;;;;;5041000;28;1910;-71
2024/04/03 08:21:06;;;;;;;;;;;18.20;65.90;;;;;;5048316;28;1474;-72
2024/04/03 08:23:31;;;;;;;;;;;18.10;65.80;;;;;;5044513;28;1538;-71
2024/04/03 08:26:05;;;;;;;;;;;18.10;65.80;;;;;;5039167;28;1751;-71
2024/04/03 08:28:30;;;;;;;;;;;18.10;65.80;;;;;;5040736;28;1483;-71
2024/04/03 08:30:56;;;;;;;;;;;18.10;65.80;;;;;;5040849;28;1451;-71
2024/04/03 08:33:21;;;;;;;;;;;18.10;65.80;;;;;;5040360;28;1678;-71
2024/04/03 08:35:47;;;;;;;;;;;18.10;65.90;;;;;;5039391;28;1367;-71
2024/04/03 08:38:12;;;;;;;;;;;18.10;65.90;;;;;;5040109;28;1914;-71
2024/04/03 08:40:38;;;;;;;;;;;18.10;65.90;;;;;;5024643;28;1433;-71
2024/04/03 08:43:03;;;;;;;;;;;18.10;65.90;;;;;;5039822;28;1496;-71
2024/04/03 08:45:29;;;;;;;;;;;18.10;65.90;;;;;;5069859;28;1628;-71
2024/04/03 08:47:54;;;;;;;;;;;18.10;65.90;;;;;;5073230;28;1539;-71
2024/04/03 08:50:20;;;;;;;;;;;18.10;65.90;;;;;;5036094;28;1518;-71
2024/04/03 08:52:45;;;;;;;;;;;18.10;65.90;;;;;;5025395;28;1539;-71
2024/04/03 08:55:13;;;;;;;;;;;18.10;65.90;;;;;;5073746;28;1662;-72
2024/04/03 08:57:39;;;;;;;;;;;18.10;66.00;;;;;;5076032;28;1955;-72
2024/04/03 09:00:05;;;;;;;;;;;18.10;66.00;;;;;;5031341;28;1538;-72
2024/04/03 09:02:30;;;;;;;;;;;18.10;66.00;;;;;;5039904;28;1326;-72
2024/04/03 09:04:56;;;;;;;;;;;18.10;66.00;;;;;;5039588;28;1482;-72
2024/04/03 09:07:22;;;;;;;;;;;18.10;66.00;;;;;;5043212;28;1342;-72
2024/04/03 09:09:47;;;;;;;;;;;18.10;66.00;;;;;;5040749;28;1363;-72
2024/04/03 09:12:13;;;;;;;;;;;18.10;66.00;;;;;;5037961;28;1781;-72
2024/04/03 09:14:38;;;;;;;;;;;18.10;66.00;;;;;;5072776;28;1948;-72
2024/04/03 09:17:05;;;;;;;;;;;18.10;66.10;;;;;;5043362;28;1985;-72
2024/04/03 09:19:31;;;;;;;;;;;18.10;66.10;;;;;;5040439;28;1324;-72
2024/04/03 09:22:00;;;;;;;;;;;18.10;66.20;;;;;;5054498;28;1167;-72
2024/04/03 09:24:26;;;;;;;;;;;18.10;66.50;;;;;;5038065;28;1269;-73
2024/04/03 09:26:51;;;;;;;;;;;18.10;66.50;;;;;;5040359;28;1477;-72
2024/04/03 09:29:17;;;;;;;;;;;18.10;66.70;;;;;;5039658;28;1653;-72
2024/04/03 09:31:43;;;;;;;;;;;18.10;66.50;;;;;;5056631;28;2151;-71
2024/04/03 09:34:09;;;;;;;;;;;18.10;66.40;;;;;;5073167;28;1387;-72
2024/04/03 09:36:34;;;;;;;;;;;18.10;66.40;;;;;;5038397;28;1938;-72
2024/04/03 09:39:00;;;;;;;;;;;18.10;66.40;;;;;;5037503;28;1471;-70
2024/04/03 09:41:26;;;;;;;;;;;18.10;66.40;;;;;;5036987;28;1532;-70
2024/04/03 09:43:52;;;;;;;;;;;18.10;66.30;;;;;;5054123;28;1304;-70
2024/04/03 09:46:17;;;;;;;;;;;18.10;66.30;;;;;;5037584;28;1411;-70
2024/04/03 09:48:44;;;;;;;;;;;18.10;66.40;;;;;;5040890;28;1432;-71
2024/04/03 09:51:09;;;;;;;;;;;18.10;66.40;;;;;;5046342;28;1274;-71
2024/04/03 09:53:35;;;;;;;;;;;18.10;66.40;;;;;;5066900;28;1402;-71
2024/04/03 09:56:00;;;;;;;;;;;18.00;66.30;;;;;;5037364;28;1553;-70
2024/04/03 09:58:30;;;;;;;;;;;18.10;66.40;;;;;;5037593;28;1890;-71
2024/04/03 10:00:56;;;;;;;;;;;18.00;66.30;;;;;;5040577;28;1524;-71
2024/04/03 10:03:32;;;;;;;;;;;18.10;66.40;;;;;;5040868;28;1460;-73
2024/04/03 10:05:58;;;;;;;;;;;18.00;66.50;;;;;;5023029;28;1506;-72
2024/04/03 10:08:23;;;;;;;;;;;18.00;66.30;;;;;;5037620;28;1206;-73
2024/04/03 10:10:50;;;;;;;;;;;18.00;66.30;;;;;;5071858;28;893;-71
2024/04/03 10:13:24;;;;;;;;;;;18.00;66.40;;;;;;5037504;28;1208;-72
2024/04/03 10:16:02;;;;;;;;;;;18.00;66.40;;;;;;5037063;28;1323;-70
2024/04/03 10:18:28;;;;;;;;;;;18.00;66.40;;;;;;5041036;28;1905;-70
2024/04/03 10:20:57;;;;;;;;;;;18.00;66.40;;;;;;5037545;28;1346;-71
2024/04/03 10:23:26;;;;;;;;;;;18.00;66.40;;;;;;5047835;28;1248;-70
2024/04/03 10:25:51;;;;;;;;;;;18.00;66.40;;;;;;5034677;28;1344;-70
2024/04/03 10:28:17;;;;;;;;;;;18.00;66.40;;;;;;5040698;28;1698;-70
2024/04/03 10:30:44;;;;;;;;;;;18.00;66.40;;;;;;5036607;28;1347;-70
2024/04/03 10:33:10;;;;;;;;;;;18.00;66.40;;;;;;5038178;28;1482;-70
2024/04/03 10:35:35;;;;;;;;;;;18.00;66.40;;;;;;5038374;28;1440;-70
2024/04/03 10:38:04;;;;;;;;;;;18.00;66.40;;;;;;5058021;28;1899;-70
2024/04/03 10:40:30;;;;;;;;;;;18.00;66.40;;;;;;5039738;28;1662;-71
2024/04/03 10:42:55;;;;;;;;;;;18.00;66.40;;;;;;5037568;28;1459;-72
2024/04/03 10:45:21;;;;;;;;;;;18.00;66.40;;;;;;5033335;28;1406;-71
2024/04/03 10:47:47;;;;;;;;;;;18.00;66.40;;;;;;5039213;28;1018;-71
2024/04/03 10:50:12;;;;;;;;;;;18.00;66.50;;;;;;5044508;28;1629;-70
2024/04/03 10:52:38;;;;;;;;;;;18.00;66.40;;;;;;5042629;28;1477;-71
2024/04/03 10:55:03;;;;;;;;;;;18.00;66.40;;;;;;5033893;28;1455;-71
2024/04/03 10:57:29;;;;;;;;;;;18.00;66.40;;;;;;5039050;28;1914;-71
2024/04/03 10:59:57;;;;;;;;;;;18.00;66.50;;;;;;5057876;28;1217;-70
2024/04/03 11:02:23;;;;;;;;;;;18.00;66.40;;;;;;5044901;28;1277;-71
2024/04/03 11:04:48;;;;;;;;;;;18.00;66.40;;;;;;5046051;28;1485;-71
2024/04/03 11:07:14;;;;;;;;;;;18.00;66.50;;;;;;5058678;28;1387;-70
2024/04/03 11:09:40;;;;;;;;;;;18.00;66.50;;;;;;5041546;28;1545;-71
2024/04/03 11:12:12;;;;;;;;;;;18.00;66.50;;;;;;5060481;28;1485;-71
2024/04/03 11:14:38;;;;;;;;;;;18.00;66.50;;;;;;5044198;28;1435;-71
2024/04/03 11:17:07;;;;;;;;;;;18.00;66.50;;;;;;5038929;28;1969;-71
2024/04/03 11:19:34;;;;;;;;;;;18.00;66.50;;;;;;5039898;28;1471;-70
2024/04/03 11:21:59;;;;;;;;;;;18.00;66.40;;;;;;5042714;28;1502;-70
2024/04/03 11:24:25;;;;;;;;;;;18.00;66.40;;;;;;5040380;28;1549;-70
2024/04/03 11:26:51;;;;;;;;;;;18.00;66.30;;;;;;5072826;28;1554;-69
2024/04/03 11:29:25;;;;;;;;;;;18.10;66.30;;;;;;5059053;28;1532;-70
2024/04/03 11:31:51;;;;;;;;;;;18.10;66.20;;;;;;5057458;28;1569;-69
2024/04/03 11:34:16;;;;;;;;;;;18.10;66.10;;;;;;5038860;28;1834;-69
2024/04/03 11:36:42;;;;;;;;;;;18.10;66.10;;;;;;5042061;28;1910;-69
2024/04/03 11:39:08;;;;;;;;;;;18.10;65.90;;;;;;5039630;28;1726;-69
2024/04/03 11:41:36;;;;;;;;;;;18.20;65.90;;;;;;5038755;28;1469;-69
2024/04/03 11:44:02;;;;;;;;;;;18.20;65.80;;;;;;5044408;28;1419;-70
2024/04/03 11:46:27;;;;;;;;;;;18.20;65.70;;;;;;5041712;28;1393;-71
2024/04/03 11:48:59;;;;;;;;;;;18.20;65.70;;;;;;5042519;28;867;-71
2024/04/03 11:51:25;;;;;;;;;;;18.30;65.60;;;;;;5041342;28;1195;-71
2024/04/03 11:53:51;;;;;;;;;;;18.30;65.50;;;;;;5042096;28;1514;-71
2024/04/03 11:56:17;;;;;;;;;;;18.30;65.40;;;;;;5037773;28;1340;-71
2024/04/03 11:58:46;;;;;;;;;;;18.30;65.30;;;;;;5041114;28;1898;-71
2024/04/03 12:01:11;;;;;;;;;;;18.30;65.30;;;;;;5039736;28;1360;-71
2024/04/03 12:03:36;;;;;;;;;;;18.40;65.30;;;;;;5056682;28;1333;-72
2024/04/03 12:06:03;;;;;;;;;;;18.40;65.20;;;;;;5048550;28;1296;-72
2024/04/03 12:08:29;;;;;;;;;;;18.40;65.20;;;;;;5042764;28;872;-72
2024/04/03 12:10:54;;;;;;;;;;;18.40;65.20;;;;;;5047968;28;1380;-71
2024/04/03 12:13:20;;;;;;;;;;;18.40;65.10;;;;;;5072200;28;2244;-71
2024/04/03 12:15:47;;;;;;;;;;;18.40;65.10;;;;;;5055781;28;1429;-70
2024/04/03 12:18:13;;;;;;;;;;;18.40;65.10;;;;;;5041269;28;2343;-70
2024/04/03 12:20:40;;;;;;;;;;;18.40;65.00;;;;;;5071738;28;1473;-71
2024/04/03 12:23:05;;;;;;;;;;;18.40;65.00;;;;;;5038794;28;2324;-71
2024/04/03 12:25:31;;;;;;;;;;;18.40;65.00;;;;;;5041278;28;1855;-71
2024/04/03 12:27:57;;;;;;;;;;;18.40;65.00;;;;;;5072932;28;1391;-71
2024/04/03 12:30:22;;;;;;;;;;;18.40;64.90;;;;;;5041275;28;1446;-71
2024/04/03 12:32:47;;;;;;;;;;;18.40;64.90;;;;;;5039269;28;1287;-71
2024/04/03 12:35:16;;;;;;;;;;;18.40;64.90;;;;;;5040828;28;1518;-71
2024/04/03 12:37:41;;;;;;;;;;;18.40;64.90;;;;;;5041843;28;1989;-71
2024/04/03 12:40:08;;;;;;;;;;;18.40;64.90;;;;;;5040285;28;1442;-71
2024/04/03 12:42:34;;;;;;;;;;;18.50;64.90;;;;;;5053553;28;1411;-71
2024/04/03 12:44:59;;;;;;;;;;;18.40;64.80;;;;;;5039662;28;1253;-71
2024/04/03 12:47:25;;;;;;;;;;;18.50;64.90;;;;;;5036706;28;1272;-71
2024/04/03 12:49:51;;;;;;;;;;;18.50;64.90;;;;;;5032991;28;1366;-71
2024/04/03 12:52:18;;;;;;;;;;;18.50;64.90;;;;;;5038881;28;1063;-71
2024/04/03 12:54:44;;;;;;;;;;;18.50;64.90;;;;;;5041930;28;936;-71
2024/04/03 12:57:09;;;;;;;;;;;18.50;64.80;;;;;;5040552;28;1957;-71
2024/04/03 12:59:35;;;;;;;;;;;18.50;64.90;;;;;;5036126;28;1361;-71
2024/04/03 13:02:00;;;;;;;;;;;18.50;64.90;;;;;;5038054;28;1831;-71
2024/04/03 13:04:26;;;;;;;;;;;18.50;64.90;;;;;;5070331;28;1275;-71
2024/04/03 13:06:52;;;;;;;;;;;18.40;64.80;;;;;;5069782;28;1627;-71
2024/04/03 13:09:18;;;;;;;;;;;18.40;64.90;;;;;;5047842;28;1767;-71
2024/04/03 13:11:43;;;;;;;;;;;18.40;64.80;;;;;;5045592;28;1456;-71
2024/04/03 13:14:10;;;;;;;;;;;18.50;65.00;;;;;;5038419;28;1381;-71
2024/04/03 13:16:35;;;;;;;;;;;18.40;64.90;;;;;;5072516;28;1965;-71
2024/04/03 13:19:01;;;;;;;;;;;18.40;64.90;;;;;;5042507;28;1447;-71
2024/04/03 13:21:26;;;;;;;;;;;18.40;65.00;;;;;;5039603;28;1451;-71
2024/04/03 13:23:52;;;;;;;;;;;18.40;65.00;;;;;;5037517;28;1442;-71
2024/04/03 13:26:17;;;;;;;;;;;18.40;65.00;;;;;;5040348;28;2014;-71
2024/04/03 13:28:42;;;;;;;;;;;18.40;65.00;;;;;;5072521;28;1561;-71
2024/04/03 13:31:08;;;;;;;;;;;18.40;65.00;;;;;;5039116;28;1641;-71
2024/04/03 13:33:34;;;;;;;;;;;18.40;65.00;;;;;;5040621;28;1334;-70
2024/04/03 13:35:59;;;;;;;;;;;18.40;65.00;;;;;;5045898;28;1433;-71
2024/04/03 13:38:25;;;;;;;;;;;18.40;65.00;;;;;;5041444;28;1902;-71
2024/04/03 13:40:50;;;;;;;;;;;18.40;65.00;;;;;;5038288;28;1309;-70
2024/04/03 13:43:16;;;;;;;;;;;18.40;65.00;;;;;;5040374;28;1639;-71
2024/04/03 13:45:41;;;;;;;;;;;18.40;65.00;;;;;;5072605;28;1252;-70
2024/04/03 13:48:07;;;;;;;;;;;18.40;65.00;;;;;;5039621;28;1469;-70
2024/04/03 13:50:32;;;;;;;;;;;18.40;65.00;;;;;;5041520;28;1369;-71
2024/04/03 13:52:58;;;;;;;;;;;18.40;65.00;;;;;;5039256;28;1403;-71
2024/04/03 13:55:23;;;;;;;;;;;18.40;65.00;;;;;;5036745;28;1287;-71
2024/04/03 13:57:49;;;;;;;;;;;18.40;65.00;;;;;;5039283;28;1955;-71
2024/04/03 14:00:23;;;;;;;;;;;18.40;65.00;;;;;;5040503;28;1602;-71
2024/04/03 14:02:49;;;;;;;;;;;18.40;65.00;;;;;;5036950;28;1564;-71
2024/04/03 14:05:14;;;;;;;;;;;18.40;65.00;;;;;;5068820;28;1775;-71
2024/04/03 14:07:40;;;;;;;;;;;18.40;65.00;;;;;;5066188;28;1576;-71
2024/04/03 14:10:06;;;;;;;;;;;18.40;65.00;;;;;;5037791;28;1344;-71
2024/04/03 14:12:32;;;;;;;;;;;18.40;65.10;;;;;;5035339;28;2176;-71
2024/04/03 14:14:58;;;;;;;;;;;18.40;65.10;;;;;;5034273;28;1465;-71
2024/04/03 14:17:23;;;;;;;;;;;18.40;65.10;;;;;;5037723;28;2046;-71
2024/04/03 14:19:49;;;;;;;;;;;18.40;65.10;;;;;;5039422;28;1477;-71
2024/04/03 14:22:14;;;;;;;;;;;18.40;65.10;;;;;;5035848;28;1409;-71
2024/04/03 14:24:40;;;;;;;;;;;18.40;65.10;;;;;;5029441;28;1137;-71
2024/04/03 14:27:06;;;;;;;;;;;18.40;65.10;;;;;;5069613;28;1499;-71